createdAt,value
2022-12-24T00:03:24.535Z,43.12
2022-12-24T00:08:26.542Z,43.96
2022-12-24T00:13:28.461Z,43.86
2022-12-24T00:18:30.725Z,45.07
2022-12-24T00:23:32.885Z,44.56
2022-12-24T00:28:35.117Z,45.37
2022-12-24T00:33:36.996Z,46.93
2022-12-24T00:38:39.581Z,43.34
2022-12-24T00:43:41.417Z,45.06
2022-12-24T00:48:43.262Z,43.28
2022-12-24T00:53:45.183Z,42.73
2022-12-24T00:58:47.497Z,44.84
2022-12-24T01:03:51.157Z,48.28
2022-12-24T01:08:53.190Z,50.46
2022-12-24T01:13:56.170Z,49.28
2022-12-24T01:18:58.037Z,49.38
2022-12-24T01:23:59.914Z,49.21
2022-12-24T01:29:02.045Z,51.30
2022-12-24T01:34:04.001Z,52.78
2022-12-24T01:39:05.822Z,51.56
2022-12-24T01:44:36.159Z,50.09
2022-12-24T01:49:43.182Z,49.89
2022-12-24T01:54:51.011Z,48.12
2022-12-24T01:59:58.070Z,47.57
2022-12-24T02:05:34.880Z,45.70
2022-12-24T02:10:37.045Z,46.69
2022-12-24T02:16:22.122Z,47.01
2022-12-24T02:21:24.885Z,46.13
2022-12-24T02:26:42.669Z,47.31
2022-12-24T02:31:48.827Z,46.41
2022-12-24T02:36:59.815Z,46.91
2022-12-24T02:42:06.518Z,46.60
2022-12-24T02:47:11.556Z,48.00
2022-12-24T02:52:34.540Z,49.80
2022-12-24T02:58:01.951Z,51.24
2022-12-24T03:03:18.315Z,50.88
2022-12-24T03:08:23.198Z,51.17
2022-12-24T03:13:28.237Z,49.92
2022-12-24T03:18:30.918Z,50.23
2022-12-24T03:23:34.853Z,50.51
2022-12-24T03:28:39.565Z,50.86
2022-12-24T03:33:41.770Z,50.85
2022-12-24T03:38:43.695Z,51.75
2022-12-24T03:43:45.594Z,51.43
2022-12-24T03:48:47.545Z,51.20
2022-12-24T03:53:51.782Z,51.91
2022-12-24T03:58:54.319Z,52.37
2022-12-24T04:03:56.233Z,52.44
2022-12-24T04:09:01.647Z,55.10
2022-12-24T04:14:03.655Z,56.11
2022-12-24T04:19:05.531Z,54.85
2022-12-24T04:24:07.474Z,53.94
2022-12-24T04:29:09.406Z,56.48
2022-12-24T04:34:11.670Z,56.18
2022-12-24T04:39:13.555Z,54.67
2022-12-24T04:44:15.462Z,56.49
2022-12-24T04:49:17.346Z,55.61
2022-12-24T04:54:19.233Z,56.25
2022-12-24T04:59:21.170Z,57.12
2022-12-24T05:04:23.036Z,57.65
2022-12-24T05:09:24.927Z,56.92
2022-12-24T05:14:26.835Z,53.91
2022-12-24T05:19:28.870Z,53.39
2022-12-24T05:24:49.363Z,56.32
2022-12-24T05:29:51.236Z,57.50
2022-12-24T05:34:53.238Z,57.03
2022-12-24T05:39:55.202Z,55.52
2022-12-24T05:44:57.102Z,56.02
2022-12-24T05:49:59.019Z,56.91
2022-12-24T05:55:00.898Z,58.23
2022-12-24T06:00:03.331Z,59.29
2022-12-24T06:05:14.264Z,58.58
2022-12-24T06:10:16.230Z,58.80
2022-12-24T06:15:23.708Z,60.37
2022-12-24T06:20:26.180Z,59.78
2022-12-24T06:25:28.037Z,59.90
2022-12-24T06:30:29.890Z,58.70
2022-12-24T06:35:33.180Z,59.47
2022-12-24T06:40:35.102Z,58.68
2022-12-24T06:45:37.219Z,61.17
2022-12-24T06:50:39.414Z,63.02
2022-12-24T06:55:41.245Z,61.76
2022-12-24T07:00:43.141Z,61.27
2022-12-24T07:05:44.958Z,61.76
2022-12-24T07:10:53.910Z,60.10
2022-12-24T07:16:01.258Z,58.60
2022-12-24T07:21:05.043Z,57.63
2022-12-24T07:26:07.546Z,58.42
2022-12-24T07:31:09.547Z,56.80
2022-12-24T07:36:19.495Z,57.13
2022-12-24T07:41:21.366Z,56.22
2022-12-24T07:46:23.590Z,57.25
2022-12-24T07:51:25.507Z,57.74
2022-12-24T07:56:27.427Z,57.14
2022-12-24T08:01:29.400Z,57.51
2022-12-24T08:06:31.522Z,58.37
2022-12-24T08:11:33.559Z,58.40
2022-12-24T08:16:35.476Z,57.58
2022-12-24T08:21:37.435Z,57.44
2022-12-24T08:26:39.445Z,54.17
2022-12-24T08:31:42.185Z,56.34
2022-12-24T08:36:44.254Z,56.74
2022-12-24T08:41:46.400Z,57.22
2022-12-24T08:46:48.236Z,57.69
2022-12-24T08:51:51.411Z,56.83
2022-12-24T08:56:53.259Z,60.17
2022-12-24T09:01:55.353Z,62.60
2022-12-24T09:06:57.320Z,60.88
2022-12-24T09:11:59.262Z,61.31
2022-12-24T09:17:01.230Z,62.35
2022-12-24T09:22:03.519Z,61.86
2022-12-24T09:27:05.575Z,63.39
2022-12-24T09:32:08.113Z,62.82
2022-12-24T09:37:10.183Z,63.73
2022-12-24T09:42:33.846Z,62.23
2022-12-24T09:47:53.876Z,60.99
2022-12-24T09:52:57.998Z,57.84
2022-12-24T09:58:02.375Z,58.90
2022-12-24T10:03:15.795Z,57.84
2022-12-24T10:08:29.468Z,58.09
2022-12-24T10:13:50.169Z,57.32
2022-12-24T10:19:05.567Z,55.99
2022-12-24T10:24:25.252Z,58.88
2022-12-24T10:29:37.750Z,58.49
2022-12-24T10:34:53.762Z,58.75
2022-12-24T10:40:00.766Z,58.10
2022-12-24T10:45:05.966Z,59.70
2022-12-24T10:50:39.498Z,58.29
2022-12-24T10:55:41.966Z,55.85
2022-12-24T11:00:50.916Z,57.07
2022-12-24T11:06:07.054Z,58.27
2022-12-24T11:11:12.697Z,58.91
2022-12-24T11:16:28.633Z,60.41
2022-12-24T11:21:39.300Z,60.03
2022-12-24T11:26:44.645Z,60.89
2022-12-24T11:31:47.975Z,60.50
2022-12-24T11:36:51.341Z,62.65
2022-12-24T11:41:54.386Z,61.12
2022-12-24T11:46:57.165Z,61.15
2022-12-24T11:52:11.408Z,61.60
2022-12-24T11:57:16.194Z,60.96
2022-12-24T12:02:29.776Z,60.10
2022-12-24T12:07:35.314Z,60.62
2022-12-24T12:12:42.607Z,59.06
2022-12-24T12:18:17.954Z,58.11
2022-12-24T12:23:33.855Z,59.63
2022-12-24T12:28:41.088Z,58.86
2022-12-24T12:33:54.887Z,59.03
2022-12-24T12:38:56.809Z,59.38
2022-12-24T12:44:01.717Z,58.49
2022-12-24T12:49:24.534Z,57.78
2022-12-24T12:54:44.522Z,56.98
2022-12-24T13:00:00.050Z,57.32
2022-12-24T13:05:16.922Z,59.18
2022-12-24T13:10:56.463Z,57.76
2022-12-24T13:16:10.261Z,58.15
2022-12-24T13:21:16.746Z,56.68
2022-12-24T13:26:19.445Z,55.04
2022-12-24T13:31:21.345Z,56.09
2022-12-24T13:36:25.307Z,55.20
2022-12-24T13:41:40.535Z,53.96
2022-12-24T13:46:51.789Z,53.65
2022-12-24T13:52:11.758Z,53.77
2022-12-24T13:57:25.879Z,53.36
2022-12-24T14:02:32.534Z,53.01
2022-12-24T14:07:36.465Z,50.55
2022-12-24T14:12:50.430Z,49.92
2022-12-24T14:17:52.689Z,48.82
2022-12-24T14:22:56.928Z,50.23
2022-12-24T14:28:05.319Z,52.58
2022-12-24T14:33:33.795Z,54.03
2022-12-24T14:38:36.034Z,54.33
2022-12-24T14:43:47.241Z,53.54
2022-12-24T14:48:59.174Z,56.32
2022-12-24T14:54:33.745Z,55.07
2022-12-24T14:59:56.414Z,53.27
2022-12-24T15:05:19.981Z,53.23
2022-12-24T15:10:40.012Z,53.68
2022-12-24T15:15:52.238Z,56.19
2022-12-24T15:21:03.658Z,57.56
2022-12-24T15:26:23.788Z,59.69
2022-12-24T15:31:28.013Z,59.03
2022-12-24T15:36:36.684Z,57.54
2022-12-24T15:42:02.353Z,54.18
2022-12-24T15:47:07.866Z,53.97
2022-12-24T15:52:14.557Z,52.34
2022-12-24T15:57:33.917Z,52.08
2022-12-24T16:02:43.204Z,53.98
2022-12-24T16:08:15.036Z,56.37
2022-12-24T16:13:23.627Z,58.50
2022-12-24T16:18:51.627Z,58.67
2022-12-24T16:23:55.951Z,59.14
2022-12-24T16:28:57.966Z,57.72
2022-12-24T16:34:01.396Z,56.17
2022-12-24T16:39:22.009Z,55.67
2022-12-24T16:44:23.933Z,56.29
2022-12-24T16:49:26.233Z,55.55
2022-12-24T16:54:30.032Z,55.88
2022-12-24T16:59:32.754Z,56.20
2022-12-24T17:04:34.719Z,55.70
2022-12-24T17:09:36.613Z,54.83
2022-12-24T17:14:39.444Z,55.33
2022-12-24T17:19:41.319Z,56.39
2022-12-24T17:24:43.310Z,54.73
2022-12-24T17:29:45.510Z,55.86
2022-12-24T17:34:47.416Z,56.23
2022-12-24T17:39:49.287Z,55.36
2022-12-24T17:44:51.206Z,53.52
2022-12-24T17:49:53.104Z,53.70
2022-12-24T17:54:55.358Z,56.01
2022-12-24T17:59:59.991Z,57.07
2022-12-24T18:05:01.866Z,56.28
2022-12-24T18:10:04.731Z,55.07
2022-12-24T18:15:07.308Z,54.14
2022-12-24T18:20:09.460Z,53.78
2022-12-24T18:25:11.360Z,52.94
2022-12-24T18:30:13.688Z,52.97
2022-12-24T18:35:15.866Z,54.05
2022-12-24T18:40:18.170Z,54.58
2022-12-24T18:45:20.104Z,53.84
2022-12-24T18:50:22.024Z,54.85
2022-12-24T18:55:23.998Z,52.88
2022-12-24T19:00:26.187Z,52.07
2022-12-24T19:05:28.063Z,51.85
2022-12-24T19:10:29.918Z,50.50
2022-12-24T19:15:35.784Z,49.89
2022-12-24T19:20:39.799Z,49.41
2022-12-24T19:25:41.609Z,48.61
2022-12-24T19:30:43.540Z,49.33
2022-12-24T19:35:45.653Z,49.76
2022-12-24T19:40:47.542Z,48.00
2022-12-24T19:45:57.579Z,48.50
2022-12-24T19:51:04.521Z,48.41
2022-12-24T19:56:08.716Z,47.79
2022-12-24T20:01:16.742Z,46.28
2022-12-24T20:06:22.102Z,46.97
2022-12-24T20:11:23.976Z,46.99
2022-12-24T20:16:26.946Z,45.96
2022-12-24T20:21:29.611Z,46.67
2022-12-24T20:26:31.553Z,45.93
2022-12-24T20:31:33.854Z,45.97
2022-12-24T20:36:37.233Z,45.57
2022-12-24T20:41:39.401Z,45.42
2022-12-24T20:46:41.295Z,44.63
2022-12-24T20:51:43.186Z,45.24
2022-12-24T20:56:45.232Z,44.72
2022-12-24T21:01:59.882Z,44.00
2022-12-24T21:07:01.973Z,43.81
2022-12-24T21:12:22.386Z,44.35
2022-12-24T21:17:24.390Z,42.82
2022-12-24T21:22:26.757Z,42.55
2022-12-24T21:27:29.610Z,42.50
2022-12-24T21:32:31.731Z,42.32
2022-12-24T21:37:34.099Z,42.53
2022-12-24T21:42:37.026Z,42.69
2022-12-24T21:47:39.200Z,43.42
2022-12-24T21:52:41.277Z,42.84
2022-12-24T21:57:55.380Z,43.19
2022-12-24T22:02:58.615Z,44.23
2022-12-24T22:08:19.579Z,44.22
2022-12-24T22:13:21.472Z,43.76
2022-12-24T22:18:26.518Z,44.06
2022-12-24T22:23:28.490Z,44.14
2022-12-24T22:28:30.346Z,44.24
2022-12-24T22:33:33.379Z,43.61
2022-12-24T22:38:35.252Z,44.86
2022-12-24T22:43:37.291Z,44.09
2022-12-24T22:48:40.321Z,42.73
2022-12-24T22:53:42.261Z,42.65
2022-12-24T22:58:44.688Z,42.65
2022-12-24T23:03:46.593Z,41.99
2022-12-24T23:08:48.473Z,42.04
2022-12-24T23:14:09.325Z,43.10
2022-12-24T23:19:11.609Z,43.26
2022-12-24T23:24:13.459Z,43.05
2022-12-24T23:29:15.412Z,42.85
2022-12-24T23:34:17.272Z,44.05
2022-12-24T23:39:19.511Z,42.97
2022-12-24T23:44:24.179Z,43.26
2022-12-24T23:49:30.210Z,42.68
2022-12-24T23:54:32.145Z,41.98
2022-12-24T23:59:34.761Z,41.08
